createdAt,value
2017-07-31T00:00:36.107Z,19.01
2017-07-31T00:01:35.782Z,18.95
2017-07-31T00:02:36.407Z,18.87
2017-07-31T00:03:36.076Z,18.82
2017-07-31T00:04:36.386Z,18.82
2017-07-31T00:05:36.057Z,18.77
2017-07-31T00:06:36.050Z,18.8
2017-07-31T00:07:35.724Z,18.79
2017-07-31T00:08:36.029Z,18.73
2017-07-31T00:09:36.019Z,18.77
2017-07-31T00:10:36.017Z,18.83
2017-07-31T00:11:35.998Z,18.74
2017-07-31T00:12:35.994Z,18.76
2017-07-31T00:13:36.322Z,18.68
2017-07-31T00:14:35.657Z,18.74
2017-07-31T00:15:35.963Z,18.76
2017-07-31T00:16:36.261Z,18.79
2017-07-31T00:17:35.942Z,18.74
2017-07-31T00:18:36.246Z,18.79
2017-07-31T00:19:35.923Z,18.73
2017-07-31T00:20:35.912Z,18.7
2017-07-31T00:21:35.594Z,18.67
2017-07-31T00:22:35.580Z,18.74
2017-07-31T00:23:36.198Z,18.67
2017-07-31T00:24:36.185Z,18.64
2017-07-31T00:25:36.174Z,18.67
2017-07-31T00:26:35.855Z,18.67
2017-07-31T00:27:36.153Z,18.73
2017-07-31T00:28:35.833Z,18.77
2017-07-31T00:29:36.136Z,18.68
2017-07-31T00:30:35.811Z,18.65
2017-07-31T00:31:36.112Z,18.67
2017-07-31T00:32:36.110Z,18.65
2017-07-31T00:33:35.784Z,18.65
2017-07-31T00:34:35.461Z,18.65
2017-07-31T00:35:35.768Z,18.57
2017-07-31T00:36:35.753Z,18.61
2017-07-31T00:37:36.059Z,18.58
2017-07-31T00:38:36.053Z,18.59
2017-07-31T00:39:36.044Z,18.68
2017-07-31T00:40:36.032Z,18.64
2017-07-31T00:41:35.706Z,18.61
2017-07-31T00:42:36.052Z,18.68
2017-07-31T00:43:35.689Z,18.68
2017-07-31T00:44:35.679Z,18.67
2017-07-31T00:45:35.976Z,18.67
2017-07-31T00:46:35.973Z,18.68
2017-07-31T00:47:35.656Z,18.62
2017-07-31T00:48:35.949Z,18.64
2017-07-31T00:49:35.325Z,18.64
2017-07-31T00:50:35.617Z,18.74
2017-07-31T00:51:35.921Z,18.64
2017-07-31T00:52:35.928Z,18.59
2017-07-31T00:53:35.901Z,18.67
2017-07-31T00:54:35.889Z,18.55
2017-07-31T00:55:35.590Z,18.64
2017-07-31T00:56:35.871Z,18.59
2017-07-31T00:57:35.549Z,18.68
2017-07-31T00:58:35.538Z,18.58
2017-07-31T00:59:35.530Z,18.57
2017-07-31T01:00:35.202Z,18.55
2017-07-31T01:01:35.511Z,18.55
2017-07-31T01:02:35.504Z,18.61
2017-07-31T01:03:35.803Z,18.58
2017-07-31T01:04:35.481Z,18.55
2017-07-31T01:05:35.784Z,18.54
2017-07-31T01:06:35.775Z,18.59
2017-07-31T01:07:35.455Z,18.49
2017-07-31T01:08:35.754Z,18.49
2017-07-31T01:09:35.749Z,18.55
2017-07-31T01:10:35.734Z,18.52
2017-07-31T01:11:35.409Z,18.57
2017-07-31T01:12:35.715Z,18.61
2017-07-31T01:13:35.392Z,18.55
2017-07-31T01:14:35.686Z,18.54
2017-07-31T01:15:35.371Z,18.59
2017-07-31T01:16:35.677Z,18.61
2017-07-31T01:17:35.350Z,18.62
2017-07-31T01:18:35.651Z,18.58
2017-07-31T01:19:35.643Z,18.54
2017-07-31T01:20:35.010Z,18.61
2017-07-31T01:21:35.312Z,18.57
2017-07-31T01:22:35.308Z,18.57
2017-07-31T01:23:35.604Z,18.5
2017-07-31T01:24:35.279Z,18.5
2017-07-31T01:25:35.273Z,18.54
2017-07-31T01:26:34.950Z,18.44
2017-07-31T01:27:35.249Z,18.37
2017-07-31T01:28:34.930Z,18.36
2017-07-31T01:29:35.549Z,18.31
2017-07-31T01:30:35.535Z,18.24
2017-07-31T01:31:35.528Z,18.28
2017-07-31T01:32:35.513Z,18.17
2017-07-31T01:33:34.884Z,18.18
2017-07-31T01:34:35.185Z,18.15
2017-07-31T01:35:35.168Z,18.21
2017-07-31T01:36:35.479Z,18.07
2017-07-31T01:37:35.151Z,18.09
2017-07-31T01:38:35.148Z,18.07
2017-07-31T01:39:35.442Z,18
2017-07-31T01:40:35.438Z,18.02
2017-07-31T01:41:35.107Z,17.89
2017-07-31T01:42:35.416Z,17.84
2017-07-31T01:43:35.398Z,17.87
2017-07-31T01:44:35.075Z,17.79
2017-07-31T01:45:35.078Z,17.85
2017-07-31T01:46:35.058Z,17.74
2017-07-31T01:47:35.365Z,17.71
2017-07-31T01:48:34.720Z,17.7
2017-07-31T01:49:35.347Z,17.7
2017-07-31T01:50:35.018Z,17.67
2017-07-31T01:51:35.009Z,17.64
2017-07-31T01:52:35.313Z,17.57
2017-07-31T01:53:34.989Z,17.54
2017-07-31T01:54:35.289Z,17.64
2017-07-31T01:55:35.279Z,17.54
2017-07-31T01:56:35.276Z,17.53
2017-07-31T01:57:35.260Z,17.51
2017-07-31T01:58:35.246Z,17.43
2017-07-31T01:59:34.927Z,17.41
2017-07-31T02:00:34.916Z,17.44
2017-07-31T02:01:34.925Z,17.53
2017-07-31T02:02:34.897Z,17.48
2017-07-31T02:03:35.195Z,17.43
2017-07-31T02:04:35.192Z,17.38
2017-07-31T02:05:35.173Z,17.4
2017-07-31T02:06:34.535Z,17.3
2017-07-31T02:07:34.840Z,17.29
2017-07-31T02:08:35.148Z,17.38
2017-07-31T02:09:35.132Z,17.3
2017-07-31T02:10:35.118Z,17.26
2017-07-31T02:11:35.112Z,17.3
2017-07-31T02:12:34.799Z,17.2
2017-07-31T02:13:34.774Z,17.22
2017-07-31T02:14:35.078Z,17.18
2017-07-31T02:15:34.754Z,17.22
2017-07-31T02:16:34.743Z,17.18
2017-07-31T02:17:34.418Z,17.2
2017-07-31T02:18:35.032Z,17.18
2017-07-31T02:19:34.712Z,17.13
2017-07-31T02:20:34.394Z,17.14
2017-07-31T02:21:35.003Z,17.13
2017-07-31T02:22:34.994Z,17.15
2017-07-31T02:23:34.979Z,17.13
2017-07-31T02:24:34.658Z,17.15
2017-07-31T02:25:34.959Z,17.13
2017-07-31T02:26:34.645Z,17.08
2017-07-31T02:27:34.825Z,17.08
2017-07-31T02:28:34.617Z,17.08
2017-07-31T02:29:34.910Z,16.96
2017-07-31T02:30:34.911Z,17.03
2017-07-31T02:31:34.631Z,17.03
2017-07-31T02:32:34.885Z,17.03
2017-07-31T02:33:34.558Z,16.98
2017-07-31T02:34:34.552Z,16.93
2017-07-31T02:35:34.539Z,16.92
2017-07-31T02:36:34.534Z,16.95
2017-07-31T02:37:34.204Z,16.93
2017-07-31T02:38:34.817Z,16.86
2017-07-31T02:39:34.493Z,16.89
2017-07-31T02:40:34.481Z,16.95
2017-07-31T02:41:34.159Z,16.88
2017-07-31T02:42:34.464Z,16.86
2017-07-31T02:43:34.452Z,16.88
2017-07-31T02:44:34.749Z,16.83
2017-07-31T02:45:34.755Z,16.95
2017-07-31T02:46:34.726Z,16.89
2017-07-31T02:47:34.414Z,16.9
2017-07-31T02:48:34.754Z,16.92
2017-07-31T02:49:34.380Z,16.89
2017-07-31T02:50:34.688Z,16.92
2017-07-31T02:51:34.670Z,16.81
2017-07-31T02:52:34.665Z,16.78
2017-07-31T02:53:34.355Z,16.78
2017-07-31T02:54:34.332Z,16.8
2017-07-31T02:55:34.008Z,16.89
2017-07-31T02:56:33.996Z,16.78
2017-07-31T02:57:34.301Z,16.77
2017-07-31T02:58:33.972Z,16.78
2017-07-31T02:59:34.279Z,16.86
2017-07-31T03:00:34.575Z,16.86
2017-07-31T03:01:34.280Z,16.7
2017-07-31T03:02:34.233Z,16.74
2017-07-31T03:03:34.228Z,16.74
2017-07-31T03:04:34.220Z,16.73
2017-07-31T03:05:34.517Z,16.56
2017-07-31T03:06:34.510Z,16.65
2017-07-31T03:07:34.187Z,16.63
2017-07-31T03:08:34.169Z,16.65
2017-07-31T03:09:34.164Z,16.53
2017-07-31T03:10:34.466Z,16.45
2017-07-31T03:11:34.461Z,16.44
2017-07-31T03:12:34.440Z,16.49
2017-07-31T03:13:34.116Z,16.44
2017-07-31T03:14:34.134Z,16.37
2017-07-31T03:15:34.089Z,16.35
2017-07-31T03:16:34.394Z,16.4
2017-07-31T03:17:34.073Z,16.4
2017-07-31T03:18:33.743Z,16.4
2017-07-31T03:19:34.052Z,16.33
2017-07-31T03:20:34.356Z,16.41
2017-07-31T03:21:34.333Z,16.35
2017-07-31T03:22:34.327Z,16.41
2017-07-31T03:23:34.002Z,16.35
2017-07-31T03:24:34.301Z,16.38
2017-07-31T03:25:33.665Z,16.38
2017-07-31T03:26:34.278Z,16.34
2017-07-31T03:27:33.640Z,16.4
2017-07-31T03:28:34.254Z,16.33
2017-07-31T03:29:33.931Z,16.37
2017-07-31T03:30:33.608Z,16.4
2017-07-31T03:31:33.914Z,16.4
2017-07-31T03:32:33.896Z,16.35
2017-07-31T03:33:33.880Z,16.37
2017-07-31T03:34:33.564Z,16.33
2017-07-31T03:35:33.862Z,16.41
2017-07-31T03:36:33.852Z,16.45
2017-07-31T03:37:33.850Z,16.48
2017-07-31T03:38:33.517Z,16.5
2017-07-31T03:39:33.816Z,16.45
2017-07-31T03:40:34.114Z,16.49
2017-07-31T03:41:34.108Z,16.5
2017-07-31T03:42:33.777Z,16.4
2017-07-31T03:43:34.079Z,16.49
2017-07-31T03:44:34.074Z,16.49
2017-07-31T03:45:33.765Z,16.5
2017-07-31T03:46:34.051Z,16.52
2017-07-31T03:47:33.721Z,16.49
2017-07-31T03:48:33.710Z,16.48
2017-07-31T03:49:33.701Z,16.48
2017-07-31T03:50:34.006Z,16.44
2017-07-31T03:51:33.996Z,16.37
2017-07-31T03:52:33.707Z,16.45
2017-07-31T03:53:33.656Z,16.38
2017-07-31T03:54:33.965Z,16.42
2017-07-31T03:55:33.633Z,16.37
2017-07-31T03:56:33.637Z,16.33
2017-07-31T03:57:33.615Z,16.31
2017-07-31T03:58:33.606Z,16.31
2017-07-31T03:59:33.588Z,16.3
2017-07-31T04:00:33.577Z,16.25
2017-07-31T04:01:33.560Z,16.33
2017-07-31T04:02:33.238Z,16.34
2017-07-31T04:03:33.537Z,16.41
2017-07-31T04:04:33.218Z,16.34
2017-07-31T04:05:33.861Z,16.34
2017-07-31T04:06:33.861Z,16.38
2017-07-31T04:07:33.808Z,16.35
2017-07-31T04:08:33.483Z,16.4
2017-07-31T04:09:33.469Z,16.33
2017-07-31T04:10:33.782Z,16.34
2017-07-31T04:11:33.761Z,16.35
2017-07-31T04:12:33.748Z,16.35
2017-07-31T04:13:33.107Z,16.31
2017-07-31T04:14:33.419Z,16.48
2017-07-31T04:15:33.403Z,16.5
2017-07-31T04:16:33.699Z,16.41
2017-07-31T04:17:33.719Z,16.48
2017-07-31T04:18:33.055Z,16.45
2017-07-31T04:19:33.041Z,16.5
2017-07-31T04:20:33.344Z,16.5
2017-07-31T04:21:33.337Z,16.5
2017-07-31T04:22:33.654Z,16.45
2017-07-31T04:23:33.628Z,16.49
2017-07-31T04:24:33.296Z,16.44
2017-07-31T04:25:33.599Z,16.55
2017-07-31T04:26:33.590Z,16.56
2017-07-31T04:27:33.778Z,16.55
2017-07-31T04:28:33.251Z,16.52
2017-07-31T04:29:32.930Z,16.5
2017-07-31T04:30:33.537Z,16.58
2017-07-31T04:31:33.215Z,16.5
2017-07-31T04:32:33.524Z,16.55
2017-07-31T04:33:33.198Z,16.59
2017-07-31T04:34:33.509Z,16.56
2017-07-31T04:35:33.490Z,16.58
2017-07-31T04:36:33.488Z,16.59
2017-07-31T04:37:33.151Z,16.65
2017-07-31T04:38:33.141Z,16.59
2017-07-31T04:39:32.813Z,16.63
2017-07-31T04:40:33.435Z,16.6
2017-07-31T04:41:32.792Z,16.6
2017-07-31T04:42:33.415Z,16.56
2017-07-31T04:43:33.088Z,16.74
2017-07-31T04:44:33.074Z,16.75
2017-07-31T04:45:33.062Z,16.65
2017-07-31T04:46:33.367Z,16.67
2017-07-31T04:47:33.037Z,16.67
2017-07-31T04:48:33.025Z,16.7
2017-07-31T04:49:33.331Z,16.67
2017-07-31T04:50:33.003Z,16.77
2017-07-31T04:51:33.309Z,16.7
2017-07-31T04:52:32.979Z,16.7
2017-07-31T04:53:33.284Z,16.73
2017-07-31T04:54:32.960Z,16.88
2017-07-31T04:55:33.264Z,16.81
2017-07-31T04:56:33.248Z,16.83
2017-07-31T04:57:33.235Z,16.8
2017-07-31T04:58:32.917Z,16.88
2017-07-31T04:59:32.927Z,16.78
2017-07-31T05:00:33.228Z,16.85
2017-07-31T05:01:33.201Z,16.75
2017-07-31T05:02:33.185Z,16.8
2017-07-31T05:03:33.186Z,16.81
2017-07-31T05:04:32.847Z,16.78
2017-07-31T05:05:32.838Z,16.83
2017-07-31T05:06:33.026Z,16.81
2017-07-31T05:07:32.814Z,16.92
2017-07-31T05:08:32.800Z,16.83
2017-07-31T05:09:33.101Z,16.85
2017-07-31T05:10:33.094Z,16.9
2017-07-31T05:11:32.774Z,16.86
2017-07-31T05:12:32.755Z,17
2017-07-31T05:13:32.440Z,16.95
2017-07-31T05:14:32.735Z,16.89
2017-07-31T05:15:32.757Z,16.93
2017-07-31T05:16:32.402Z,16.96
2017-07-31T05:17:33.014Z,16.92
2017-07-31T05:18:33.005Z,16.93
2017-07-31T05:19:32.372Z,17.1
2017-07-31T05:20:32.666Z,16.98
2017-07-31T05:21:32.863Z,17.04
2017-07-31T05:22:32.655Z,17.07
2017-07-31T05:23:32.324Z,17.04
2017-07-31T05:24:32.945Z,17.08
2017-07-31T05:25:32.935Z,17.06
2017-07-31T05:26:32.915Z,17.08
2017-07-31T05:27:32.282Z,17.13
2017-07-31T05:28:32.582Z,17.06
2017-07-31T05:29:32.619Z,17.11
2017-07-31T05:30:32.560Z,17.1
2017-07-31T05:31:32.553Z,17.14
2017-07-31T05:32:32.541Z,17.2
2017-07-31T05:33:32.225Z,17.18
2017-07-31T05:34:32.832Z,17.29
2017-07-31T05:35:32.816Z,17.33
2017-07-31T05:36:32.494Z,17.3
2017-07-31T05:37:32.169Z,17.4
2017-07-31T05:38:32.781Z,17.41
2017-07-31T05:39:32.780Z,17.33
2017-07-31T05:40:32.766Z,17.44
2017-07-31T05:41:32.440Z,17.48
2017-07-31T05:42:32.440Z,17.48
2017-07-31T05:43:32.728Z,17.43
2017-07-31T05:44:32.419Z,17.51
2017-07-31T05:45:32.394Z,17.53
2017-07-31T05:46:32.697Z,17.57
2017-07-31T05:47:32.064Z,17.51
2017-07-31T05:48:32.675Z,17.53
2017-07-31T05:49:32.669Z,17.64
2017-07-31T05:50:32.659Z,17.66
2017-07-31T05:51:32.020Z,17.62
2017-07-31T05:52:32.328Z,17.73
2017-07-31T05:53:32.014Z,17.74
2017-07-31T05:54:32.316Z,17.74
2017-07-31T05:55:32.603Z,17.73
2017-07-31T05:56:32.289Z,17.81
2017-07-31T05:57:31.956Z,17.84
2017-07-31T05:58:32.569Z,17.82
2017-07-31T05:59:31.934Z,17.84
2017-07-31T06:00:32.237Z,17.87
2017-07-31T06:01:32.232Z,17.87
2017-07-31T06:02:32.535Z,17.84
2017-07-31T06:03:32.514Z,17.89
2017-07-31T06:04:31.885Z,17.91
2017-07-31T06:05:32.184Z,17.88
2017-07-31T06:06:32.174Z,17.95
2017-07-31T06:07:32.174Z,18.02
2017-07-31T06:08:32.157Z,17.95
2017-07-31T06:09:32.149Z,18.04
2017-07-31T06:10:32.459Z,18
2017-07-31T06:11:32.433Z,18.06
2017-07-31T06:12:32.114Z,18.1
2017-07-31T06:13:32.105Z,18.1
2017-07-31T06:14:32.412Z,18.12
2017-07-31T06:15:32.403Z,18.12
2017-07-31T06:16:32.389Z,18.1
2017-07-31T06:17:32.057Z,18.18
2017-07-31T06:18:31.739Z,18.22
2017-07-31T06:19:32.355Z,18.24
2017-07-31T06:20:31.730Z,18.21
2017-07-31T06:21:31.712Z,18.34
2017-07-31T06:22:32.009Z,18.25
2017-07-31T06:23:31.996Z,18.36
2017-07-31T06:24:31.675Z,18.4
2017-07-31T06:25:31.670Z,18.46
2017-07-31T06:26:32.278Z,18.43
2017-07-31T06:27:31.647Z,18.5
2017-07-31T06:28:31.636Z,18.5
2017-07-31T06:29:31.938Z,18.58
2017-07-31T06:30:31.928Z,18.64
2017-07-31T06:31:31.922Z,18.54
2017-07-31T06:32:31.591Z,18.61
2017-07-31T06:33:31.896Z,18.62
2017-07-31T06:34:31.890Z,18.55
2017-07-31T06:35:31.932Z,18.62
2017-07-31T06:36:32.176Z,18.64
2017-07-31T06:37:32.172Z,18.61
2017-07-31T06:38:32.158Z,18.79
2017-07-31T06:39:31.835Z,18.8
2017-07-31T06:40:31.835Z,18.79
2017-07-31T06:41:32.130Z,18.79
2017-07-31T06:42:31.803Z,18.82
2017-07-31T06:43:31.491Z,18.83
2017-07-31T06:44:32.102Z,18.86
2017-07-31T06:45:31.487Z,18.95
2017-07-31T06:46:31.770Z,18.9
2017-07-31T06:47:32.066Z,18.97
2017-07-31T06:48:31.747Z,19.08
2017-07-31T06:49:31.419Z,19.02
2017-07-31T06:50:32.036Z,19.08
2017-07-31T06:51:31.716Z,19.13
2017-07-31T06:52:31.707Z,19.25
2017-07-31T06:53:32.016Z,19.25
2017-07-31T06:54:31.697Z,19.33
2017-07-31T06:55:31.993Z,19.33
2017-07-31T06:56:31.986Z,19.35
2017-07-31T06:57:31.665Z,19.38
2017-07-31T06:58:31.961Z,19.46
2017-07-31T06:59:31.645Z,19.43
2017-07-31T07:00:31.320Z,19.47
2017-07-31T07:01:31.938Z,19.6
2017-07-31T07:02:32.128Z,19.68
2017-07-31T07:03:31.920Z,19.75
2017-07-31T07:04:31.282Z,19.83
2017-07-31T07:05:31.893Z,19.9
2017-07-31T07:06:31.263Z,19.93
2017-07-31T07:07:31.872Z,20.03
2017-07-31T07:08:31.578Z,20.09
2017-07-31T07:09:31.557Z,20.2
2017-07-31T07:10:31.225Z,20.18
2017-07-31T07:11:31.843Z,20.27
2017-07-31T07:12:31.830Z,20.33
2017-07-31T07:13:31.825Z,20.33
2017-07-31T07:14:31.505Z,20.41
2017-07-31T07:15:31.496Z,20.42
2017-07-31T07:16:31.686Z,20.43
2017-07-31T07:17:31.473Z,20.41
2017-07-31T07:18:31.472Z,20.41
2017-07-31T07:19:31.775Z,20.41
2017-07-31T07:20:31.446Z,20.27
2017-07-31T07:21:31.331Z,20.42
2017-07-31T07:22:31.438Z,20.27
2017-07-31T07:23:31.729Z,20.35
2017-07-31T07:24:31.410Z,20.39
2017-07-31T07:25:31.718Z,20.43
2017-07-31T07:26:31.709Z,20.38
2017-07-31T07:27:31.703Z,20.43
2017-07-31T07:28:31.377Z,20.35
2017-07-31T07:29:31.059Z,20.46
2017-07-31T07:30:31.372Z,20.39
2017-07-31T07:31:31.346Z,20.49
2017-07-31T07:32:31.034Z,20.54
2017-07-31T07:33:31.023Z,20.41
2017-07-31T07:34:31.631Z,20.43
2017-07-31T07:35:31.001Z,20.39
2017-07-31T07:36:31.613Z,20.51
2017-07-31T07:37:31.613Z,21.06
2017-07-31T07:38:31.289Z,22.09
2017-07-31T07:39:31.281Z,23.14
2017-07-31T07:40:31.273Z,23.14
2017-07-31T07:41:31.284Z,23.24
2017-07-31T07:42:31.570Z,22.92
2017-07-31T07:43:31.255Z,23.11
2017-07-31T07:44:31.556Z,22.9
2017-07-31T07:45:31.237Z,23.45
2017-07-31T07:46:31.234Z,23.43
2017-07-31T07:47:31.228Z,23.87
2017-07-31T07:48:31.234Z,24.07
2017-07-31T07:49:30.904Z,24.85
2017-07-31T07:50:31.207Z,25.83
2017-07-31T07:51:31.206Z,26.35
2017-07-31T07:52:31.513Z,26.44
2017-07-31T07:53:31.193Z,26.61
2017-07-31T07:54:31.507Z,26.83
2017-07-31T07:55:31.522Z,27.28
2017-07-31T07:56:31.188Z,27.59
2017-07-31T07:57:31.494Z,27.95
2017-07-31T07:58:31.489Z,28.28
2017-07-31T07:59:31.177Z,28.69
2017-07-31T08:00:31.166Z,28.96
2017-07-31T08:01:31.481Z,28.93
2017-07-31T08:02:31.163Z,28.62
2017-07-31T08:03:31.167Z,28.62
2017-07-31T08:04:31.159Z,28.53
2017-07-31T08:05:31.151Z,28.96
2017-07-31T08:06:31.459Z,28.88
2017-07-31T08:07:31.148Z,28.65
2017-07-31T08:08:31.149Z,27.85
2017-07-31T08:09:31.157Z,27.64
2017-07-31T08:10:31.144Z,27.64
2017-07-31T08:11:31.183Z,27.73
2017-07-31T08:12:31.450Z,27.69
2017-07-31T08:13:31.446Z,27.59
2017-07-31T08:14:31.441Z,27.62
2017-07-31T08:15:31.127Z,27.62
2017-07-31T08:16:30.811Z,27.82
2017-07-31T08:17:31.118Z,28.19
2017-07-31T08:18:30.812Z,28.66
2017-07-31T08:19:31.117Z,28.73
2017-07-31T08:20:31.429Z,28.58
2017-07-31T08:21:31.432Z,27.84
2017-07-31T08:22:31.422Z,27.96
2017-07-31T08:23:45.683Z,28.53
2017-07-31T08:24:31.423Z,28.46
2017-07-31T08:25:31.416Z,28.84
2017-07-31T08:26:31.418Z,29.2
2017-07-31T08:27:31.103Z,29.49
2017-07-31T08:28:31.102Z,29.57
2017-07-31T08:29:31.412Z,29.56
2017-07-31T08:30:30.786Z,29.55
2017-07-31T08:31:31.098Z,29.86
2017-07-31T08:32:31.109Z,30.23
2017-07-31T08:33:31.092Z,30.33
2017-07-31T08:34:31.098Z,29.99
2017-07-31T08:35:31.110Z,29.94
2017-07-31T08:36:31.097Z,30.15
2017-07-31T08:37:31.406Z,30.15
2017-07-31T08:38:31.096Z,29.38
2017-07-31T08:39:31.103Z,28.85
2017-07-31T08:40:30.786Z,28.6
2017-07-31T08:41:31.406Z,28.29
2017-07-31T08:42:31.089Z,27.88
2017-07-31T08:43:30.780Z,27.47
2017-07-31T08:44:31.105Z,27.02
2017-07-31T08:45:31.105Z,26.89
2017-07-31T08:46:31.096Z,26.54
2017-07-31T08:47:31.406Z,26.4
2017-07-31T08:48:30.767Z,26.24
2017-07-31T08:49:30.781Z,26.21
2017-07-31T08:50:31.395Z,26.09
2017-07-31T08:51:31.398Z,26.08
2017-07-31T08:52:31.079Z,26.18
2017-07-31T08:53:31.429Z,26.08
2017-07-31T08:54:30.757Z,26.09
2017-07-31T08:55:31.071Z,26.21
2017-07-31T08:56:31.373Z,26.27
2017-07-31T08:57:31.371Z,26.31
2017-07-31T08:58:31.367Z,26.22
2017-07-31T08:59:31.057Z,26.18
2017-07-31T09:00:31.367Z,26.08
2017-07-31T09:01:31.049Z,25.87
2017-07-31T09:02:31.366Z,25.82
2017-07-31T09:03:31.052Z,25.77
2017-07-31T09:04:30.741Z,25.68
2017-07-31T09:05:31.033Z,25.52
2017-07-31T09:06:31.344Z,25.31
2017-07-31T09:07:31.037Z,25.2
2017-07-31T09:08:30.704Z,25.1
2017-07-31T09:09:30.702Z,25.07
2017-07-31T09:10:31.018Z,25
2017-07-31T09:11:30.696Z,24.9
2017-07-31T09:12:31.002Z,24.87
2017-07-31T09:13:30.995Z,24.76
2017-07-31T09:14:30.678Z,24.64
2017-07-31T09:15:31.298Z,24.63
2017-07-31T09:16:30.986Z,24.64
2017-07-31T09:17:30.982Z,24.49
2017-07-31T09:18:31.292Z,24.54
2017-07-31T09:19:31.015Z,24.5
2017-07-31T09:20:30.961Z,24.41
2017-07-31T09:21:31.174Z,24.45
2017-07-31T09:22:31.266Z,24.49
2017-07-31T09:23:30.633Z,24.47
2017-07-31T09:24:30.937Z,24.38
2017-07-31T09:25:30.937Z,24.39
2017-07-31T09:26:31.245Z,24.32
2017-07-31T09:27:31.238Z,24.42
2017-07-31T09:28:30.921Z,24.49
2017-07-31T09:29:31.226Z,24.41
2017-07-31T09:30:30.598Z,24.39
2017-07-31T09:31:30.908Z,24.44
2017-07-31T09:32:30.897Z,24.37
2017-07-31T09:33:30.896Z,24.39
2017-07-31T09:34:30.885Z,24.29
2017-07-31T09:35:31.196Z,24.35
2017-07-31T09:36:30.874Z,24.45
2017-07-31T09:37:30.917Z,24.38
2017-07-31T09:38:30.862Z,24.47
2017-07-31T09:39:31.172Z,24.44
2017-07-31T09:40:30.890Z,24.56
2017-07-31T09:41:30.537Z,24.42
2017-07-31T09:42:30.836Z,24.47
2017-07-31T09:43:30.855Z,24.44
2017-07-31T09:44:30.829Z,24.39
2017-07-31T09:45:30.814Z,24.45
2017-07-31T09:46:30.495Z,24.47
2017-07-31T09:47:30.495Z,24.6
2017-07-31T09:48:30.484Z,24.52
2017-07-31T09:49:30.800Z,24.45
2017-07-31T09:50:30.474Z,24.37
2017-07-31T09:51:30.782Z,24.34
2017-07-31T09:52:30.776Z,24.35
2017-07-31T09:53:31.080Z,24.38
2017-07-31T09:54:30.766Z,24.32
2017-07-31T09:55:30.757Z,24.45
2017-07-31T09:56:30.780Z,24.42
2017-07-31T09:57:31.322Z,24.49
2017-07-31T09:58:30.773Z,24.41
2017-07-31T09:59:30.811Z,24.41
2017-07-31T10:00:30.430Z,24.41
2017-07-31T10:01:31.090Z,24.42
2017-07-31T10:02:30.403Z,24.39
2017-07-31T10:03:30.716Z,24.34
2017-07-31T10:04:30.714Z,24.29
2017-07-31T10:05:31.022Z,24.24
2017-07-31T10:06:30.710Z,24.19
2017-07-31T10:07:31.003Z,24.16
2017-07-31T10:08:30.685Z,24.27
2017-07-31T10:09:30.691Z,24.31
2017-07-31T10:10:30.674Z,24.37
2017-07-31T10:11:30.670Z,24.44
2017-07-31T10:12:30.667Z,24.5
2017-07-31T10:13:30.350Z,24.52
2017-07-31T10:14:30.964Z,24.8
2017-07-31T10:15:30.331Z,24.94
2017-07-31T10:16:30.669Z,25.1
2017-07-31T10:17:30.944Z,25.06
2017-07-31T10:18:30.635Z,25.06
2017-07-31T10:19:30.624Z,25.15
2017-07-31T10:20:30.623Z,25.2
2017-07-31T10:21:30.925Z,25.27
2017-07-31T10:22:30.618Z,25.16
2017-07-31T10:23:30.608Z,25.22
2017-07-31T10:24:30.919Z,25.39
2017-07-31T10:25:30.284Z,25.5
2017-07-31T10:26:30.904Z,25.57
2017-07-31T10:27:30.899Z,25.74
2017-07-31T10:28:30.577Z,25.89
2017-07-31T10:29:30.890Z,26.09
2017-07-31T10:30:30.570Z,26.29
2017-07-31T10:31:30.253Z,26.76
2017-07-31T10:32:30.565Z,27.01
2017-07-31T10:33:30.877Z,27.28
2017-07-31T10:34:30.247Z,27.38
2017-07-31T10:35:30.562Z,27.39
2017-07-31T10:36:30.563Z,27.53
2017-07-31T10:37:30.556Z,27.58
2017-07-31T10:38:30.876Z,27.39
2017-07-31T10:39:30.865Z,27.62
2017-07-31T10:40:30.246Z,27.79
2017-07-31T10:41:30.866Z,28.13
2017-07-31T10:42:30.863Z,28.21
2017-07-31T10:43:30.871Z,27.89
2017-07-31T10:44:30.868Z,28.22
2017-07-31T10:45:30.864Z,28.46
2017-07-31T10:46:30.563Z,28.8
2017-07-31T10:47:30.865Z,28.95
2017-07-31T10:48:30.559Z,28.95
2017-07-31T10:49:30.908Z,28.91
2017-07-31T10:50:30.250Z,29.18
2017-07-31T10:51:30.570Z,29
2017-07-31T10:52:30.571Z,28.58
2017-07-31T10:53:30.254Z,28.32
2017-07-31T10:54:30.568Z,28.5
2017-07-31T10:55:30.571Z,28.32
2017-07-31T10:56:30.302Z,28.07
2017-07-31T10:57:30.577Z,27.99
2017-07-31T10:58:30.942Z,27.88
2017-07-31T10:59:30.265Z,27.71
2017-07-31T11:00:30.269Z,27.66
2017-07-31T11:01:30.299Z,27.42
2017-07-31T11:02:30.897Z,27.53
2017-07-31T11:03:30.900Z,27.54
2017-07-31T11:04:30.592Z,27.19
2017-07-31T11:05:30.268Z,27.36
2017-07-31T11:06:30.583Z,27.41
2017-07-31T11:07:30.582Z,27.35
2017-07-31T11:08:30.585Z,27.59
2017-07-31T11:09:30.594Z,27.66
2017-07-31T11:10:30.597Z,27.73
2017-07-31T11:11:30.902Z,27.85
2017-07-31T11:12:30.585Z,27.95
2017-07-31T11:13:30.588Z,28.13
2017-07-31T11:14:30.267Z,28.28
2017-07-31T11:15:30.902Z,27.94
2017-07-31T11:16:30.582Z,28.11
2017-07-31T11:17:30.933Z,28.4
2017-07-31T11:18:30.899Z,28.62
2017-07-31T11:19:30.898Z,28.59
2017-07-31T11:20:30.273Z,28.93
2017-07-31T11:21:31.112Z,29.16
2017-07-31T11:22:30.903Z,29.4
2017-07-31T11:23:30.905Z,29.28
2017-07-31T11:24:30.910Z,29.28
2017-07-31T11:25:30.908Z,29.31
2017-07-31T11:26:30.599Z,29.4
2017-07-31T11:27:30.597Z,29.38
2017-07-31T11:28:30.924Z,29.44
2017-07-31T11:29:30.609Z,29.38
2017-07-31T11:30:30.624Z,29.56
2017-07-31T11:31:30.309Z,29.78
2017-07-31T11:32:30.303Z,29.68
2017-07-31T11:33:30.620Z,29.43
2017-07-31T11:34:30.618Z,29.15
2017-07-31T11:35:30.631Z,29.04
2017-07-31T11:36:30.946Z,28.59
2017-07-31T11:37:30.943Z,28.38
2017-07-31T11:38:30.945Z,28.29
2017-07-31T11:39:30.946Z,28.03
2017-07-31T11:40:30.636Z,27.85
2017-07-31T11:41:30.635Z,27.99
2017-07-31T11:42:30.967Z,28.07
2017-07-31T11:43:30.643Z,28.04
2017-07-31T11:44:30.660Z,28.13
2017-07-31T11:46:02.729Z,28.26
2017-07-31T11:46:30.646Z,28.07
2017-07-31T11:47:30.968Z,28.04
2017-07-31T11:48:30.962Z,28.21
2017-07-31T11:49:30.662Z,28.06
2017-07-31T11:50:30.994Z,27.88
2017-07-31T11:51:30.960Z,27.7
2017-07-31T11:52:30.654Z,27.57
2017-07-31T11:53:30.968Z,27.42
2017-07-31T11:54:30.344Z,27.26
2017-07-31T11:55:30.654Z,27.19
2017-07-31T11:56:30.965Z,27.23
2017-07-31T11:57:30.351Z,27.1
2017-07-31T11:58:30.668Z,26.91
2017-07-31T11:59:30.962Z,26.98
2017-07-31T12:00:30.960Z,27.28
2017-07-31T12:01:30.644Z,27.23
2017-07-31T12:02:30.678Z,27.21
2017-07-31T12:03:30.641Z,27.21
2017-07-31T12:04:30.959Z,27.53
2017-07-31T12:05:30.955Z,27.41
2017-07-31T12:06:30.647Z,27.36
2017-07-31T12:07:30.645Z,27.42
2017-07-31T12:08:30.329Z,27.35
2017-07-31T12:09:30.331Z,27.32
2017-07-31T12:10:30.959Z,27.58
2017-07-31T12:11:30.648Z,27.82
2017-07-31T12:12:30.635Z,27.95
2017-07-31T12:13:30.849Z,28.07
2017-07-31T12:14:30.642Z,28.38
2017-07-31T12:15:30.944Z,28.54
2017-07-31T12:16:30.944Z,28.78
2017-07-31T12:17:30.642Z,29.15
2017-07-31T12:18:30.637Z,29.31
2017-07-31T12:19:30.637Z,29.43
2017-07-31T12:20:30.648Z,29.49
2017-07-31T12:21:30.655Z,29.7
2017-07-31T12:22:30.646Z,29.57
2017-07-31T12:23:30.650Z,29.23
2017-07-31T12:24:30.643Z,29.07
2017-07-31T12:25:30.336Z,28.8
2017-07-31T12:26:30.676Z,28.85
2017-07-31T12:27:30.337Z,28.97
2017-07-31T12:28:30.967Z,29.18
2017-07-31T12:29:30.651Z,29.26
2017-07-31T12:30:30.973Z,29.26
2017-07-31T12:31:30.969Z,29.29
2017-07-31T12:32:30.658Z,29.23
2017-07-31T12:33:30.352Z,29.22
2017-07-31T12:34:30.660Z,29.25
2017-07-31T12:35:31.005Z,29.37
2017-07-31T12:36:30.976Z,29.19
2017-07-31T12:37:30.977Z,29.13
2017-07-31T12:38:30.980Z,28.69
2017-07-31T12:39:30.989Z,28.51
2017-07-31T12:40:30.670Z,28.25
2017-07-31T12:41:30.676Z,28.14
2017-07-31T12:42:30.673Z,28.07
2017-07-31T12:43:30.361Z,27.96
2017-07-31T12:44:30.362Z,27.74
2017-07-31T12:45:30.673Z,27.85
2017-07-31T12:46:30.986Z,27.76
2017-07-31T12:47:30.364Z,27.73
2017-07-31T12:48:30.997Z,27.77
2017-07-31T12:49:30.696Z,27.71
2017-07-31T12:50:30.682Z,27.64
2017-07-31T12:51:30.680Z,27.66
2017-07-31T12:52:30.682Z,27.73
2017-07-31T12:53:30.680Z,27.74
2017-07-31T12:54:30.687Z,27.88
2017-07-31T12:55:30.682Z,27.94